Sequoia — WDJ4306 — position and weather

sailwx.info

Track history (hours):
 
Tides and Currents Weather Stations Pressure Air Temp Water Temp Dewpoint Dewpoint Depression Visibility Wind Speed Wind Dir Waves Ship Positions

Sequoia

Owner: PropSF, LLC, Alameda, CA. More information available from US FCC via Universal Licensing System and Coast Guard Vessel Documentation Center.

Last reported at 2018-Jan-20 02:04 UTC. Time now 2018-Jan-21 16:26 UTC.
Position N 37°50' W 122°19'.

Length 17 m.

Type: Passenger vessel. MMSI: 367776380.

Date/timePositionNaut miles runAvg speedWind from/ knotsBaromVisibWave heightAir tempDewpointWater temp
2018-Jan-20 02:04N 37°50' W 122°19'0 1.5
2018-Jan-20 02:01N 37°50' W 122°19'2 4.6
2018-Jan-20 01:31N 37°50' W 122°22'1021.0
2018-Jan-20 01:00N 37°40' W 122°23'713.8
2018-Jan-20 00:31N 37°47' W 122°22'816.2
2018-Jan-20 00:00N 37°55' W 122°21'918.2
2018-Jan-19 23:31N 37°46' W 122°22'611.9
2018-Jan-19 23:00N 37°40' W 122°23'2 4.5
2018-Jan-19 22:30N 37°42' W 122°22'917.5
2018-Jan-19 22:00N 37°50' W 122°19'0 0.0
2018-Jan-19 21:30N 37°50' W 122°19'0 0.0
2018-Jan-19 21:00N 37°50' W 122°19'0 0.0
2018-Jan-19 20:30N 37°50' W 122°19'0 0.0
2018-Jan-19 20:00N 37°50' W 122°19'0 0.0
2018-Jan-19 19:30N 37°50' W 122°19'0 0.0
2018-Jan-19 19:00N 37°50' W 122°19'0 0.0
2018-Jan-19 18:30N 37°50' W 122°19'0 0.0
2018-Jan-19 18:00N 37°50' W 122°19'0 0.0
2018-Jan-19 17:30N 37°50' W 122°19'0 0.1
2018-Jan-19 17:00N 37°50' W 122°19'714.8
2018-Jan-19 16:30N 37°43' W 122°21'2 3.4
2018-Jan-19 16:01N 37°42' W 122°21'1020.5
2018-Jan-19 15:30N 37°52' W 122°19'4 8.4
2018-Jan-19 15:01N 37°48' W 122°21'917.0
2018-Jan-19 14:30N 37°40' W 122°22'1326.1
2018-Jan-19 14:01N 37°53' W 122°24'3 5.5
2018-Jan-19 13:30N 37°55' W 122°21'4 8.6
2018-Jan-19 13:01N 37°51' W 122°20'1 0.1
2018-Jan-19 02:02N 37°50' W 122°19'0 3.9
2018-Jan-19 02:00N 37°51' W 122°19'3 6.5
2018-Jan-19 01:31N 37°50' W 122°23'1020.1
2018-Jan-19 01:00N 37°40' W 122°23'612.9
2018-Jan-19 00:31N 37°46' W 122°22'816.8
2018-Jan-19 00:00N 37°55' W 122°21'817.1
2018-Jan-18 23:31N 37°46' W 122°22'612.9
2018-Jan-18 23:00N 37°40' W 122°23'1020.0
2018-Jan-18 22:30N 37°50' W 122°21'2 3.2
2018-Jan-18 22:00N 37°50' W 122°19'0 0.0
2018-Jan-18 19:18N 37°50' W 122°19'0 0.0
2018-Jan-18 19:00N 37°50' W 122°19'0 0.0
2018-Jan-18 18:30N 37°50' W 122°19'0 0.0
2018-Jan-18 18:00N 37°50' W 122°19'0 0.0
2018-Jan-18 17:30N 37°50' W 122°19'0 0.0
2018-Jan-18 17:00N 37°50' W 122°19'510.4
2018-Jan-18 16:30N 37°46' W 122°22'611.2
2018-Jan-18 16:01N 37°40' W 122°22'1223.7
2018-Jan-18 15:30N 37°52' W 122°19'4 8.2
2018-Jan-18 15:00N 37°48' W 122°21'816.3
2018-Jan-18 14:30N 37°40' W 122°22'1224.7
2018-Jan-18 14:00N 37°52' W 122°23'3 5.9
2018-Jan-18 13:31N 37°55' W 122°21'4 8.3
2018-Jan-18 13:01N 37°51' W 122°21'2 0.2
2018-Jan-18 02:04N 37°50' W 122°19'0 2.2
2018-Jan-18 02:01N 37°50' W 122°19'2 4.7
2018-Jan-18 01:31N 37°50' W 122°22'1019.9
2018-Jan-18 01:00N 37°40' W 122°23'1515.2
2018-Jan-18 00:00N 37°55' W 122°21'0 3.0
2018-Jan-17 23:57N 37°55' W 122°21'  
2018-Jan-12 15:00N 37°40' W 122°23'918.2
2018-Jan-12 14:31N 37°49' W 122°23'510.7
2018-Jan-12 14:00N 37°54' W 122°23'1 1.8
2018-Jan-12 13:30N 37°54' W 122°24'5 9.4
2018-Jan-12 13:00N 37°51' W 122°19'0 0.0
2018-Jan-12 02:03N 37°50' W 122°19'0 5.5
2018-Jan-12 02:00N 37°51' W 122°19'4 7.1
2018-Jan-12 01:31N 37°49' W 122°23'1019.2
2018-Jan-12 01:01N 37°40' W 122°23'612.5
2018-Jan-12 00:31N 37°46' W 122°22'917.5
2018-Jan-12 00:00N 37°55' W 122°21'1019.5
2018-Jan-11 23:31N 37°45' W 122°22'510.8
2018-Jan-11 23:00N 37°40' W 122°23'713.5
2018-Jan-11 22:31N 37°47' W 122°22'5 9.3
2018-Jan-11 22:01N 37°50' W 122°19'0 0.1
2018-Jan-11 21:31N 37°50' W 122°19'0 0.0
2018-Jan-11 21:01N 37°50' W 122°19'0 0.0
2018-Jan-11 20:31N 37°50' W 122°19'0 0.0
2018-Jan-11 20:01N 37°50' W 122°19'0 0.0
2018-Jan-11 19:31N 37°50' W 122°19'0 0.0
2018-Jan-11 19:01N 37°50' W 122°19'0 0.0
2018-Jan-11 18:31N 37°50' W 122°19'0 0.0
2018-Jan-11 18:01N 37°50' W 122°19'0 0.0
2018-Jan-11 17:31N 37°50' W 122°19'0 0.0
2018-Jan-11 17:01N 37°50' W 122°19'4 7.9
2018-Jan-11 16:31N 37°47' W 122°20'713.6
2018-Jan-11 16:01N 37°40' W 122°22'1224.5
2018-Jan-11 15:30N 37°52' W 122°19'611.8
2018-Jan-11 15:01N 37°46' W 122°21'612.2
2018-Jan-11 14:30N 37°40' W 122°22'1326.6
2018-Jan-11 14:00N 37°54' W 122°24'0 0.5
2018-Jan-11 13:31N 37°54' W 122°24'5 9.5
2018-Jan-11 13:00N 37°51' W 122°19'0 0.0
2018-Jan-11 02:11N 37°50' W 122°19'211.2
2018-Jan-11 02:01N 37°51' W 122°21'2 4.7
2018-Jan-11 01:31N 37°50' W 122°23'1019.9
2018-Jan-11 01:00N 37°40' W 122°23'713.9
2018-Jan-11 00:31N 37°47' W 122°22'816.2
2018-Jan-11 00:00N 37°55' W 122°21'918.5
2018-Jan-10 23:30N 37°46' W 122°22'611.7
2018-Jan-10 23:01N 37°40' W 122°23'0 0.4
2018-Jan-10 22:30N 37°40' W 122°22'1121.7
2018-Jan-10 22:01N 37°50' W 122°20'1 1.4
2018-Jan-10 21:30N 37°50' W 122°19'0 0.0
2018-Jan-10 21:00N 37°50' W 122°19'0 0.0
2018-Jan-10 20:30N 37°50' W 122°19'0 0.0
2018-Jan-10 20:00N 37°50' W 122°19'0 0.0
2018-Jan-10 19:30N 37°50' W 122°19'0 0.0
2018-Jan-10 19:00N 37°50' W 122°19'0 0.0
2018-Jan-10 18:31N 37°50' W 122°19'0 0.0
2018-Jan-10 18:00N 37°50' W 122°19'0 0.0
2018-Jan-10 17:31N 37°50' W 122°19'0 0.0
2018-Jan-10 17:00N 37°50' W 122°19'4 7.6
2018-Jan-10 16:31N 37°47' W 122°21'714.4
2018-Jan-10 16:00N 37°40' W 122°22'1224.6
2018-Jan-10 15:30N 37°52' W 122°19'3 6.8
2018-Jan-10 15:01N 37°49' W 122°21'918.6
2018-Jan-10 14:30N 37°40' W 122°23'1326.1
2018-Jan-10 14:01N 37°53' W 122°24'3 5.4
2018-Jan-10 13:30N 37°55' W 122°21'5 9.4
2018-Jan-10 13:00N 37°51' W 122°19'0 0.0
2018-Jan-10 02:04N 37°51' W 122°19'  
Track history (hours):
 
Tides and Currents Weather Stations Pressure Air Temp Water Temp Dewpoint Dewpoint Depression Visibility Wind Speed Wind Dir Waves Ship Positions

Sequoia

Owner: PropSF, LLC, Alameda, CA. More information available from US FCC via Universal Licensing System and Coast Guard Vessel Documentation Center.

Last reported at 2018-Jan-20 02:04 UTC. Time now 2018-Jan-21 16:26 UTC.
Position N 37°50' W 122°19'.

Length 17 m.

Type: Passenger vessel. MMSI: 367776380.

Date/timePositionNaut miles runAvg speedWind from/ knotsBaromVisibWave heightAir tempDewpointWater temp
2018-Jan-20 02:04N 37°50' W 122°19'0 1.5
2018-Jan-20 02:01N 37°50' W 122°19'2 4.6
2018-Jan-20 01:31N 37°50' W 122°22'1021.0
2018-Jan-20 01:00N 37°40' W 122°23'713.8
2018-Jan-20 00:31N 37°47' W 122°22'816.2
2018-Jan-20 00:00N 37°55' W 122°21'918.2
2018-Jan-19 23:31N 37°46' W 122°22'611.9
2018-Jan-19 23:00N 37°40' W 122°23'2 4.5
2018-Jan-19 22:30N 37°42' W 122°22'917.5
2018-Jan-19 22:00N 37°50' W 122°19'0 0.0
2018-Jan-19 21:30N 37°50' W 122°19'0 0.0
2018-Jan-19 21:00N 37°50' W 122°19'0 0.0
2018-Jan-19 20:30N 37°50' W 122°19'0 0.0
2018-Jan-19 20:00N 37°50' W 122°19'0 0.0
2018-Jan-19 19:30N 37°50' W 122°19'0 0.0
2018-Jan-19 19:00N 37°50' W 122°19'0 0.0
2018-Jan-19 18:30N 37°50' W 122°19'0 0.0
2018-Jan-19 18:00N 37°50' W 122°19'0 0.0
2018-Jan-19 17:30N 37°50' W 122°19'0 0.1
2018-Jan-19 17:00N 37°50' W 122°19'714.8
2018-Jan-19 16:30N 37°43' W 122°21'2 3.4
2018-Jan-19 16:01N 37°42' W 122°21'1020.5
2018-Jan-19 15:30N 37°52' W 122°19'4 8.4
2018-Jan-19 15:01N 37°48' W 122°21'917.0
2018-Jan-19 14:30N 37°40' W 122°22'1326.1
2018-Jan-19 14:01N 37°53' W 122°24'3 5.5
2018-Jan-19 13:30N 37°55' W 122°21'4 8.6
2018-Jan-19 13:01N 37°51' W 122°20'1 0.1
2018-Jan-19 02:02N 37°50' W 122°19'0 3.9
2018-Jan-19 02:00N 37°51' W 122°19'3 6.5
2018-Jan-19 01:31N 37°50' W 122°23'1020.1
2018-Jan-19 01:00N 37°40' W 122°23'612.9
2018-Jan-19 00:31N 37°46' W 122°22'816.8
2018-Jan-19 00:00N 37°55' W 122°21'817.1
2018-Jan-18 23:31N 37°46' W 122°22'612.9
2018-Jan-18 23:00N 37°40' W 122°23'1020.0
2018-Jan-18 22:30N 37°50' W 122°21'2 3.2
2018-Jan-18 22:00N 37°50' W 122°19'0 0.0
2018-Jan-18 19:18N 37°50' W 122°19'0 0.0
2018-Jan-18 19:00N 37°50' W 122°19'0 0.0
2018-Jan-18 18:30N 37°50' W 122°19'0 0.0
2018-Jan-18 18:00N 37°50' W 122°19'0 0.0
2018-Jan-18 17:30N 37°50' W 122°19'0 0.0
2018-Jan-18 17:00N 37°50' W 122°19'510.4
2018-Jan-18 16:30N 37°46' W 122°22'611.2
2018-Jan-18 16:01N 37°40' W 122°22'1223.7
2018-Jan-18 15:30N 37°52' W 122°19'4 8.2
2018-Jan-18 15:00N 37°48' W 122°21'816.3
2018-Jan-18 14:30N 37°40' W 122°22'1224.7
2018-Jan-18 14:00N 37°52' W 122°23'3 5.9
2018-Jan-18 13:31N 37°55' W 122°21'4 8.3
2018-Jan-18 13:01N 37°51' W 122°21'2 0.2
2018-Jan-18 02:04N 37°50' W 122°19'0 2.2
2018-Jan-18 02:01N 37°50' W 122°19'2 4.7
2018-Jan-18 01:31N 37°50' W 122°22'1019.9
2018-Jan-18 01:00N 37°40' W 122°23'1515.2
2018-Jan-18 00:00N 37°55' W 122°21'0 3.0
2018-Jan-17 23:57N 37°55' W 122°21'  
2018-Jan-12 15:00N 37°40' W 122°23'918.2
2018-Jan-12 14:31N 37°49' W 122°23'510.7
2018-Jan-12 14:00N 37°54' W 122°23'1 1.8
2018-Jan-12 13:30N 37°54' W 122°24'5 9.4
2018-Jan-12 13:00N 37°51' W 122°19'0 0.0
2018-Jan-12 02:03N 37°50' W 122°19'0 5.5
2018-Jan-12 02:00N 37°51' W 122°19'4 7.1
2018-Jan-12 01:31N 37°49' W 122°23'1019.2
2018-Jan-12 01:01N 37°40' W 122°23'612.5
2018-Jan-12 00:31N 37°46' W 122°22'917.5
2018-Jan-12 00:00N 37°55' W 122°21'1019.5
2018-Jan-11 23:31N 37°45' W 122°22'510.8
2018-Jan-11 23:00N 37°40' W 122°23'713.5
2018-Jan-11 22:31N 37°47' W 122°22'5 9.3
2018-Jan-11 22:01N 37°50' W 122°19'0 0.1
2018-Jan-11 21:31N 37°50' W 122°19'0 0.0
2018-Jan-11 21:01N 37°50' W 122°19'0 0.0
2018-Jan-11 20:31N 37°50' W 122°19'0 0.0
2018-Jan-11 20:01N 37°50' W 122°19'0 0.0
2018-Jan-11 19:31N 37°50' W 122°19'0 0.0
2018-Jan-11 19:01N 37°50' W 122°19'0 0.0
2018-Jan-11 18:31N 37°50' W 122°19'0 0.0
2018-Jan-11 18:01N 37°50' W 122°19'0 0.0
2018-Jan-11 17:31N 37°50' W 122°19'0 0.0
2018-Jan-11 17:01N 37°50' W 122°19'4 7.9
2018-Jan-11 16:31N 37°47' W 122°20'713.6
2018-Jan-11 16:01N 37°40' W 122°22'1224.5
2018-Jan-11 15:30N 37°52' W 122°19'611.8
2018-Jan-11 15:01N 37°46' W 122°21'612.2
2018-Jan-11 14:30N 37°40' W 122°22'1326.6
2018-Jan-11 14:00N 37°54' W 122°24'0 0.5
2018-Jan-11 13:31N 37°54' W 122°24'5 9.5
2018-Jan-11 13:00N 37°51' W 122°19'0 0.0
2018-Jan-11 02:11N 37°50' W 122°19'211.2
2018-Jan-11 02:01N 37°51' W 122°21'2 4.7
2018-Jan-11 01:31N 37°50' W 122°23'1019.9
2018-Jan-11 01:00N 37°40' W 122°23'713.9
2018-Jan-11 00:31N 37°47' W 122°22'816.2
2018-Jan-11 00:00N 37°55' W 122°21'918.5
2018-Jan-10 23:30N 37°46' W 122°22'611.7
2018-Jan-10 23:01N 37°40' W 122°23'0 0.4
2018-Jan-10 22:30N 37°40' W 122°22'1121.7
2018-Jan-10 22:01N 37°50' W 122°20'1 1.4
2018-Jan-10 21:30N 37°50' W 122°19'0 0.0
2018-Jan-10 21:00N 37°50' W 122°19'0 0.0
2018-Jan-10 20:30N 37°50' W 122°19'0 0.0
2018-Jan-10 20:00N 37°50' W 122°19'0 0.0
2018-Jan-10 19:30N 37°50' W 122°19'0 0.0
2018-Jan-10 19:00N 37°50' W 122°19'0 0.0
2018-Jan-10 18:31N 37°50' W 122°19'0 0.0
2018-Jan-10 18:00N 37°50' W 122°19'0 0.0
2018-Jan-10 17:31N 37°50' W 122°19'0 0.0
2018-Jan-10 17:00N 37°50' W 122°19'4 7.6
2018-Jan-10 16:31N 37°47' W 122°21'714.4
2018-Jan-10 16:00N 37°40' W 122°22'1224.6
2018-Jan-10 15:30N 37°52' W 122°19'3 6.8
2018-Jan-10 15:01N 37°49' W 122°21'918.6
2018-Jan-10 14:30N 37°40' W 122°23'1326.1
2018-Jan-10 14:01N 37°53' W 122°24'3 5.4
2018-Jan-10 13:30N 37°55' W 122°21'5 9.4
2018-Jan-10 13:00N 37°51' W 122°19'0 0.0
2018-Jan-10 02:04N 37°51' W 122°19'  

Dump ship's entire track history